DAL6942 KLAX-KSAC
Flight info
| Callsign | DAL6942 |
|---|---|
| Flight time | N/A |
| Altitude | 36000 |
| Route | LADYJ4 CSTRO SAC |
| Aircraft | A321/M-SDE3FGHIRWY/LB1 |
Departure
| Time | 2026-05-06 22:51 |
|---|---|
| Airport | Los Angeles International Airport (KLAX) |
Arrival
| Time | N/A |
|---|---|
| Airport | Sacramento Executive Airport (KSAC) |
| Time | Latitude | Longitude | Altitude | Speed | Heading |
|---|---|---|---|---|---|
| 2026-05-06 22:01 | 33.94641 | -118.40640 | 112 ft | 0 kts | 263° |
| 2026-05-06 22:42 | 33.94643 | -118.40619 | 93 ft | 3 kts | 264° |
| 2026-05-06 22:43 | 33.94639 | -118.40592 | 93 ft | 4 kts | 322° |
| 2026-05-06 22:43 | 33.94615 | -118.40579 | 94 ft | 4 kts | 345° |
| 2026-05-06 22:43 | 33.94602 | -118.40574 | 93 ft | 3 kts | 345° |
| 2026-05-06 22:43 | 33.94627 | -118.40583 | 93 ft | 3 kts | 352° |
| 2026-05-06 22:44 | 33.94630 | -118.40584 | 93 ft | 0 kts | 353° |
| 2026-05-06 22:46 | 33.94646 | -118.40586 | 95 ft | 5 kts | 353° |
| 2026-05-06 22:46 | 33.94696 | -118.40593 | 94 ft | 9 kts | 355° |
| 2026-05-06 22:47 | 33.94771 | -118.40590 | 96 ft | 12 kts | 13° |
| 2026-05-06 22:47 | 33.94848 | -118.40595 | 95 ft | 11 kts | 20° |
| 2026-05-06 22:47 | 33.94872 | -118.40515 | 94 ft | 11 kts | 81° |
| 2026-05-06 22:47 | 33.94882 | -118.40417 | 94 ft | 12 kts | 83° |
| 2026-05-06 22:48 | 33.94892 | -118.40315 | 94 ft | 13 kts | 83° |
| 2026-05-06 22:48 | 33.94900 | -118.40228 | 95 ft | 7 kts | 83° |
| 2026-05-06 22:48 | 33.94907 | -118.40160 | 95 ft | 9 kts | 83° |
| 2026-05-06 22:48 | 33.94915 | -118.40076 | 95 ft | 11 kts | 83° |
| 2026-05-06 22:49 | 33.94927 | -118.39976 | 93 ft | 13 kts | 80° |
| 2026-05-06 22:49 | 33.94991 | -118.39913 | 96 ft | 13 kts | 5° |
| 2026-05-06 22:49 | 33.95040 | -118.39967 | 95 ft | 7 kts | 265° |
| 2026-05-06 22:49 | 33.95040 | -118.39970 | 93 ft | 0 kts | 265° |
| 2026-05-06 22:50 | 33.95040 | -118.39971 | 93 ft | 0 kts | 265° |
| 2026-05-06 22:51 | 33.95033 | -118.40044 | 96 ft | 35 kts | 263° |
| 2026-05-06 22:51 | 33.94971 | -118.40627 | 99 ft | 104 kts | 263° |
| 2026-05-06 22:51 | 33.94859 | -118.41717 | 108 ft | 155 kts | 262° |
| 2026-05-06 22:51 | 33.94726 | -118.42973 | 835 ft | 147 kts | 259° |
| 2026-05-06 22:52 | 33.94634 | -118.43776 | 1318 ft | 146 kts | 261° |
| 2026-05-06 22:52 | 33.94506 | -118.45011 | 1941 ft | 153 kts | 262° |
| 2026-05-06 22:52 | 33.94370 | -118.46358 | 2250 ft | 173 kts | 263° |
| 2026-05-06 22:52 | 33.94253 | -118.48400 | 2670 ft | 196 kts | 268° |
| 2026-05-06 22:53 | 33.94198 | -118.50118 | 2928 ft | 214 kts | 269° |
| 2026-05-06 22:53 | 33.94124 | -118.51984 | 3174 ft | 234 kts | 267° |
| 2026-05-06 22:53 | 33.94003 | -118.54057 | 3419 ft | 259 kts | 267° |
| 2026-05-06 22:53 | 33.93905 | -118.55512 | 3792 ft | 267 kts | 267° |
| 2026-05-06 22:54 | 33.93727 | -118.57761 | 4496 ft | 272 kts | 266° |
| 2026-05-06 22:54 | 33.93591 | -118.60045 | 5183 ft | 275 kts | 277° |
| 2026-05-06 22:54 | 33.93985 | -118.62287 | 5853 ft | 275 kts | 296° |
| 2026-05-06 22:54 | 33.94995 | -118.64240 | 6511 ft | 276 kts | 316° |
| 2026-05-06 22:55 | 33.96493 | -118.65677 | 7200 ft | 276 kts | 332° |
| 2026-05-06 22:55 | 33.98163 | -118.66835 | 7923 ft | 277 kts | 339° |
| 2026-05-06 22:55 | 33.99996 | -118.67511 | 8661 ft | 276 kts | 354° |
| 2026-05-06 22:55 | 34.01904 | -118.67577 | 9406 ft | 275 kts | 6° |
| 2026-05-06 22:56 | 34.03789 | -118.67448 | 10123 ft | 278 kts | 6° |
| 2026-05-06 22:56 | 34.05768 | -118.67314 | 10329 ft | 299 kts | 6° |
| 2026-05-06 22:56 | 34.07922 | -118.67122 | 10477 ft | 319 kts | 11° |
| 2026-05-06 22:56 | 34.10143 | -118.66600 | 10975 ft | 326 kts | 13° |
| 2026-05-06 22:57 | 34.12349 | -118.66074 | 11589 ft | 330 kts | 13° |
| 2026-05-06 22:57 | 34.14626 | -118.65538 | 12215 ft | 334 kts | 13° |
| 2026-05-06 22:57 | 34.16888 | -118.65009 | 12846 ft | 337 kts | 13° |
| 2026-05-06 22:57 | 34.19174 | -118.64475 | 13545 ft | 339 kts | 13° |
| 2026-05-06 22:58 | 34.21544 | -118.63920 | 14139 ft | 343 kts | 12° |
| 2026-05-06 22:58 | 34.23910 | -118.63510 | 14713 ft | 347 kts | 4° |
| 2026-05-06 22:58 | 34.26305 | -118.63680 | 15296 ft | 353 kts | 353° |
| 2026-05-06 22:58 | 34.28725 | -118.64243 | 15884 ft | 356 kts | 351° |
| 2026-05-06 22:59 | 34.31164 | -118.64807 | 16496 ft | 358 kts | 352° |
| 2026-05-06 22:59 | 34.33625 | -118.65367 | 17089 ft | 361 kts | 352° |
| 2026-05-06 22:59 | 34.36101 | -118.65927 | 17670 ft | 364 kts | 352° |
| 2026-05-06 22:59 | 34.38598 | -118.66492 | 18280 ft | 366 kts | 352° |
| 2026-05-06 23:00 | 34.41103 | -118.67061 | 18851 ft | 367 kts | 352° |
| 2026-05-06 23:00 | 34.43628 | -118.67633 | 19339 ft | 370 kts | 352° |
| 2026-05-06 23:00 | 34.46169 | -118.68164 | 19831 ft | 372 kts | 353° |
| 2026-05-06 23:00 | 34.48739 | -118.68660 | 20343 ft | 374 kts | 354° |
| 2026-05-06 23:01 | 34.51290 | -118.69136 | 20820 ft | 378 kts | 354° |
| 2026-05-06 23:01 | 34.53893 | -118.69621 | 21336 ft | 379 kts | 354° |
| 2026-05-06 23:01 | 34.56508 | -118.70114 | 21825 ft | 382 kts | 354° |
| 2026-05-06 23:01 | 34.59148 | -118.70618 | 22326 ft | 385 kts | 354° |
| 2026-05-06 23:02 | 34.61807 | -118.71137 | 22805 ft | 388 kts | 353° |
| 2026-05-06 23:02 | 34.64477 | -118.71664 | 23288 ft | 391 kts | 353° |
| 2026-05-06 23:02 | 34.67173 | -118.72199 | 23733 ft | 393 kts | 353° |
| 2026-05-06 23:02 | 34.69883 | -118.72753 | 24084 ft | 397 kts | 351° |
| 2026-05-06 23:03 | 34.72543 | -118.73719 | 24466 ft | 403 kts | 341° |
| 2026-05-06 23:03 | 34.75070 | -118.75251 | 24840 ft | 408 kts | 334° |
| 2026-05-06 23:03 | 34.77545 | -118.76948 | 25214 ft | 410 kts | 334° |
| 2026-05-06 23:03 | 34.80001 | -118.78638 | 25589 ft | 412 kts | 334° |
| 2026-05-06 23:04 | 34.82509 | -118.80365 | 25964 ft | 414 kts | 334° |
| 2026-05-06 23:04 | 34.85027 | -118.82099 | 26346 ft | 417 kts | 334° |
| 2026-05-06 23:04 | 34.87555 | -118.83842 | 26715 ft | 419 kts | 334° |
| 2026-05-06 23:04 | 34.90093 | -118.85592 | 27066 ft | 421 kts | 334° |
| 2026-05-06 23:05 | 34.92653 | -118.87352 | 27429 ft | 423 kts | 335° |
| 2026-05-06 23:05 | 34.95221 | -118.89117 | 27783 ft | 425 kts | 335° |
| 2026-05-06 23:05 | 34.97804 | -118.90893 | 28129 ft | 427 kts | 335° |
| 2026-05-06 23:05 | 35.00398 | -118.92678 | 28475 ft | 429 kts | 334° |
| 2026-05-06 23:06 | 35.02972 | -118.94455 | 28814 ft | 431 kts | 334° |
| 2026-05-06 23:06 | 35.05588 | -118.96266 | 29121 ft | 433 kts | 334° |
| 2026-05-06 23:06 | 35.08216 | -118.98091 | 29413 ft | 436 kts | 334° |
| 2026-05-06 23:06 | 35.10855 | -118.99925 | 29712 ft | 438 kts | 334° |
| 2026-05-06 23:07 | 35.13507 | -119.01762 | 30009 ft | 440 kts | 334° |
| 2026-05-06 23:07 | 35.16173 | -119.03606 | 30286 ft | 442 kts | 334° |
| 2026-05-06 23:07 | 35.18855 | -119.05463 | 30544 ft | 443 kts | 334° |
| 2026-05-06 23:07 | 35.21538 | -119.07322 | 30832 ft | 445 kts | 334° |
| 2026-05-06 23:08 | 35.24239 | -119.09196 | 31133 ft | 446 kts | 334° |
| 2026-05-06 23:08 | 35.26933 | -119.11070 | 31534 ft | 445 kts | 334° |
| 2026-05-06 23:08 | 35.29678 | -119.12773 | 31878 ft | 440 kts | 343° |
| 2026-05-06 23:08 | 35.32512 | -119.14018 | 32210 ft | 439 kts | 344° |
| 2026-05-06 23:09 | 35.35388 | -119.15266 | 32554 ft | 438 kts | 344° |
| 2026-05-06 23:09 | 35.38252 | -119.16508 | 32891 ft | 437 kts | 344° |
| 2026-05-06 23:09 | 35.41120 | -119.17754 | 33242 ft | 436 kts | 344° |
| 2026-05-06 23:09 | 35.43982 | -119.19003 | 33595 ft | 436 kts | 343° |
| 2026-05-06 23:10 | 35.46835 | -119.20253 | 33941 ft | 435 kts | 343° |
| 2026-05-06 23:10 | 35.49676 | -119.21493 | 34245 ft | 434 kts | 344° |
| 2026-05-06 23:10 | 35.52491 | -119.22720 | 34528 ft | 434 kts | 344° |
| 2026-05-06 23:10 | 35.55331 | -119.23957 | 34816 ft | 433 kts | 344° |
| 2026-05-06 23:11 | 35.58165 | -119.25194 | 35089 ft | 432 kts | 344° |
| 2026-05-06 23:11 | 35.60998 | -119.26433 | 35353 ft | 432 kts | 343° |
| 2026-05-06 23:11 | 35.63827 | -119.27670 | 35644 ft | 431 kts | 343° |
| 2026-05-06 23:11 | 35.66651 | -119.28906 | 35939 ft | 430 kts | 343° |
| 2026-05-06 23:12 | 35.69471 | -119.30143 | 36074 ft | 430 kts | 343° |
| 2026-05-06 23:12 | 35.75040 | -119.32598 | 36100 ft | 427 kts | 343° |
| 2026-05-06 23:13 | 35.80636 | -119.35054 | 36099 ft | 427 kts | 343° |
| 2026-05-06 23:13 | 35.86232 | -119.37510 | 36106 ft | 427 kts | 343° |
| 2026-05-06 23:14 | 35.91824 | -119.39977 | 36110 ft | 427 kts | 343° |
| 2026-05-06 23:14 | 35.97378 | -119.42429 | 36106 ft | 427 kts | 343° |
| 2026-05-06 23:15 | 36.02969 | -119.44902 | 36118 ft | 427 kts | 343° |
| 2026-05-06 23:15 | 36.08572 | -119.47385 | 36126 ft | 428 kts | 343° |
| 2026-05-06 23:16 | 36.14179 | -119.49866 | 36132 ft | 428 kts | 343° |
| 2026-05-06 23:16 | 36.19781 | -119.52360 | 36132 ft | 428 kts | 343° |
| 2026-05-06 23:17 | 36.25361 | -119.54848 | 36126 ft | 428 kts | 343° |
| 2026-05-06 23:17 | 36.30971 | -119.57349 | 36130 ft | 428 kts | 343° |
| 2026-05-06 23:18 | 36.36580 | -119.59847 | 36138 ft | 429 kts | 343° |
| 2026-05-06 23:18 | 36.42152 | -119.62329 | 36136 ft | 428 kts | 343° |
| 2026-05-06 23:19 | 36.47751 | -119.64835 | 36135 ft | 428 kts | 343° |
| 2026-05-06 23:19 | 36.53338 | -119.67342 | 36137 ft | 428 kts | 343° |
| 2026-05-06 23:20 | 36.58916 | -119.69906 | 36140 ft | 429 kts | 338° |
| 2026-05-06 23:20 | 36.64082 | -119.73679 | 36144 ft | 432 kts | 330° |
| 2026-05-06 23:21 | 36.69118 | -119.77665 | 36146 ft | 432 kts | 330° |
| 2026-05-06 23:21 | 36.74191 | -119.81672 | 36145 ft | 432 kts | 331° |
| 2026-05-06 23:21 | 36.76739 | -119.83684 | 35987 ft | 435 kts | 330° |
| 2026-05-06 23:22 | 36.79292 | -119.85699 | 35734 ft | 434 kts | 330° |
| 2026-05-06 23:22 | 36.81835 | -119.87712 | 35485 ft | 432 kts | 330° |
| 2026-05-06 23:22 | 36.84353 | -119.89709 | 35247 ft | 431 kts | 330° |
| 2026-05-06 23:22 | 36.86877 | -119.91713 | 35011 ft | 429 kts | 330° |
| 2026-05-06 23:23 | 36.89388 | -119.93709 | 34766 ft | 428 kts | 330° |
| 2026-05-06 23:23 | 36.91860 | -119.95674 | 34528 ft | 425 kts | 330° |
| 2026-05-06 23:23 | 36.94338 | -119.97648 | 34293 ft | 421 kts | 330° |
| 2026-05-06 23:23 | 36.96803 | -119.99614 | 34030 ft | 417 kts | 330° |
| 2026-05-06 23:24 | 36.99238 | -120.01554 | 33564 ft | 414 kts | 330° |
| 2026-05-06 23:24 | 37.01659 | -120.03479 | 33118 ft | 409 kts | 330° |
| 2026-05-06 23:24 | 37.04052 | -120.05384 | 32651 ft | 406 kts | 330° |
| 2026-05-06 23:24 | 37.06421 | -120.07275 | 32203 ft | 402 kts | 329° |
| 2026-05-06 23:25 | 37.08767 | -120.09151 | 31756 ft | 399 kts | 329° |
| 2026-05-06 23:25 | 37.11068 | -120.10994 | 31313 ft | 396 kts | 329° |
| 2026-05-06 23:25 | 37.13380 | -120.12843 | 30870 ft | 393 kts | 329° |
| 2026-05-06 23:25 | 37.15675 | -120.14677 | 30442 ft | 390 kts | 329° |
| 2026-05-06 23:26 | 37.17959 | -120.16504 | 29975 ft | 388 kts | 329° |
| 2026-05-06 23:26 | 37.20225 | -120.18321 | 29532 ft | 384 kts | 329° |
| 2026-05-06 23:26 | 37.22467 | -120.20122 | 29105 ft | 380 kts | 329° |
| 2026-05-06 23:26 | 37.24682 | -120.21906 | 28707 ft | 377 kts | 329° |
| 2026-05-06 23:27 | 37.26881 | -120.23677 | 28296 ft | 374 kts | 329° |
| 2026-05-06 23:27 | 37.29065 | -120.25427 | 27876 ft | 372 kts | 329° |
| 2026-05-06 23:27 | 37.31247 | -120.27141 | 27409 ft | 376 kts | 330° |
| 2026-05-06 23:27 | 37.33470 | -120.28866 | 26930 ft | 375 kts | 330° |
| 2026-05-06 23:28 | 37.35692 | -120.30587 | 26473 ft | 375 kts | 330° |
| 2026-05-06 23:28 | 37.37909 | -120.32302 | 26010 ft | 374 kts | 330° |
| 2026-05-06 23:28 | 37.40123 | -120.34017 | 25544 ft | 374 kts | 330° |
| 2026-05-06 23:28 | 37.42334 | -120.35737 | 25089 ft | 374 kts | 329° |
| 2026-05-06 23:29 | 37.44544 | -120.37462 | 24636 ft | 373 kts | 329° |
| 2026-05-06 23:29 | 37.46741 | -120.39195 | 24169 ft | 373 kts | 327° |
| 2026-05-06 23:29 | 37.48757 | -120.41161 | 23876 ft | 368 kts | 323° |
| 2026-05-06 23:29 | 37.50734 | -120.43156 | 23294 ft | 362 kts | 323° |
| 2026-05-06 23:30 | 37.52702 | -120.45129 | 22757 ft | 359 kts | 323° |
| 2026-05-06 23:30 | 37.54652 | -120.47083 | 22317 ft | 357 kts | 323° |
| 2026-05-06 23:30 | 37.56587 | -120.49021 | 21880 ft | 354 kts | 323° |
| 2026-05-06 23:30 | 37.58510 | -120.50943 | 21411 ft | 352 kts | 323° |
| 2026-05-06 23:31 | 37.60404 | -120.52840 | 20995 ft | 350 kts | 323° |
| 2026-05-06 23:31 | 37.62300 | -120.54741 | 20774 ft | 349 kts | 324° |
| 2026-05-06 23:31 | 37.64200 | -120.56646 | 20516 ft | 349 kts | 324° |
| 2026-05-06 23:31 | 37.66096 | -120.58549 | 20227 ft | 348 kts | 324° |
| 2026-05-06 23:32 | 37.67983 | -120.60450 | 19958 ft | 347 kts | 324° |
| 2026-05-06 23:32 | 37.69867 | -120.62348 | 19687 ft | 346 kts | 324° |
| 2026-05-06 23:32 | 37.71748 | -120.64239 | 19425 ft | 345 kts | 324° |
| 2026-05-06 23:32 | 37.73620 | -120.66119 | 19158 ft | 345 kts | 324° |
| 2026-05-06 23:33 | 37.75500 | -120.68005 | 18849 ft | 343 kts | 324° |
| 2026-05-06 23:33 | 37.77367 | -120.69880 | 18541 ft | 342 kts | 324° |
| 2026-05-06 23:33 | 37.79203 | -120.71723 | 18225 ft | 341 kts | 324° |
| 2026-05-06 23:33 | 37.81057 | -120.73589 | 17908 ft | 340 kts | 324° |
| 2026-05-06 23:34 | 37.82905 | -120.75452 | 17597 ft | 339 kts | 324° |
| 2026-05-06 23:34 | 37.84746 | -120.77312 | 17301 ft | 338 kts | 324° |
| 2026-05-06 23:34 | 37.86582 | -120.79166 | 16905 ft | 338 kts | 324° |
| 2026-05-06 23:34 | 37.88421 | -120.81031 | 16478 ft | 336 kts | 323° |
| 2026-05-06 23:35 | 37.90213 | -120.82857 | 16108 ft | 334 kts | 323° |
| 2026-05-06 23:35 | 37.92014 | -120.84695 | 15745 ft | 332 kts | 323° |
| 2026-05-06 23:35 | 37.93807 | -120.86524 | 15373 ft | 330 kts | 323° |
| 2026-05-06 23:35 | 37.95596 | -120.88344 | 15006 ft | 329 kts | 323° |
| 2026-05-06 23:36 | 37.97379 | -120.90158 | 14640 ft | 328 kts | 323° |
| 2026-05-06 23:36 | 37.99155 | -120.91965 | 14274 ft | 327 kts | 323° |
| 2026-05-06 23:36 | 38.00924 | -120.93764 | 13917 ft | 326 kts | 323° |
| 2026-05-06 23:36 | 38.02681 | -120.95553 | 13518 ft | 324 kts | 323° |
| 2026-05-06 23:37 | 38.04417 | -120.97324 | 13155 ft | 323 kts | 323° |
| 2026-05-06 23:37 | 38.06151 | -120.99096 | 12794 ft | 321 kts | 323° |
| 2026-05-06 23:37 | 38.07822 | -121.00976 | 12437 ft | 320 kts | 314° |
| 2026-05-06 23:37 | 38.09275 | -121.03104 | 12091 ft | 318 kts | 313° |
| 2026-05-06 23:38 | 38.10712 | -121.05230 | 11737 ft | 316 kts | 313° |
| 2026-05-06 23:38 | 38.12139 | -121.07342 | 11396 ft | 314 kts | 313° |
| 2026-05-06 23:38 | 38.13545 | -121.09421 | 11072 ft | 310 kts | 313° |
| 2026-05-06 23:38 | 38.14932 | -121.11474 | 10850 ft | 303 kts | 313° |
| 2026-05-06 23:39 | 38.16300 | -121.13502 | 10499 ft | 302 kts | 313° |
| 2026-05-06 23:39 | 38.17663 | -121.15515 | 10171 ft | 299 kts | 313° |
| 2026-05-06 23:39 | 38.19017 | -121.17510 | 9741 ft | 296 kts | 313° |
| 2026-05-06 23:39 | 38.20346 | -121.19469 | 9345 ft | 291 kts | 313° |
| 2026-05-06 23:40 | 38.21663 | -121.21407 | 9037 ft | 287 kts | 314° |
| 2026-05-06 23:40 | 38.23014 | -121.23243 | 8909 ft | 284 kts | 316° |
| 2026-05-06 23:40 | 38.24395 | -121.24994 | 8839 ft | 284 kts | 317° |
| 2026-05-06 23:40 | 38.25807 | -121.26741 | 8710 ft | 283 kts | 318° |
| 2026-05-06 23:41 | 38.27219 | -121.28484 | 8585 ft | 282 kts | 318° |
| 2026-05-06 23:41 | 38.28618 | -121.30222 | 8461 ft | 281 kts | 317° |
| 2026-05-06 23:41 | 38.30007 | -121.31964 | 8347 ft | 280 kts | 317° |
| 2026-05-06 23:41 | 38.31393 | -121.33710 | 8224 ft | 280 kts | 317° |
| 2026-05-06 23:42 | 38.32771 | -121.35449 | 8099 ft | 279 kts | 317° |
| 2026-05-06 23:42 | 38.34147 | -121.37187 | 7983 ft | 278 kts | 317° |
| 2026-05-06 23:42 | 38.35502 | -121.38906 | 7871 ft | 278 kts | 317° |
| 2026-05-06 23:42 | 38.36868 | -121.40640 | 7752 ft | 277 kts | 317° |
| 2026-05-06 23:43 | 38.38232 | -121.42370 | 7633 ft | 276 kts | 317° |
| 2026-05-06 23:43 | 38.39589 | -121.44097 | 7515 ft | 275 kts | 317° |
| 2026-05-06 23:43 | 38.40946 | -121.45826 | 7393 ft | 275 kts | 317° |
| 2026-05-06 23:43 | 38.42301 | -121.47553 | 7281 ft | 274 kts | 317° |
| 2026-05-06 23:44 | 38.43638 | -121.49258 | 7159 ft | 274 kts | 317° |
| 2026-05-06 23:44 | 38.44981 | -121.50967 | 7042 ft | 273 kts | 317° |
| 2026-05-06 23:44 | 38.46303 | -121.52649 | 7005 ft | 273 kts | 316° |
| 2026-05-06 23:44 | 38.47695 | -121.54363 | 7007 ft | 274 kts | 321° |
| 2026-05-06 23:45 | 38.49170 | -121.55857 | 6897 ft | 274 kts | 323° |
| 2026-05-06 23:45 | 38.50662 | -121.57361 | 6786 ft | 274 kts | 322° |
| 2026-05-06 23:45 | 38.52157 | -121.58867 | 6677 ft | 273 kts | 323° |
| 2026-05-06 23:45 | 38.53640 | -121.60360 | 6560 ft | 273 kts | 323° |
| 2026-05-06 23:46 | 38.55127 | -121.61859 | 6443 ft | 272 kts | 323° |
| 2026-05-06 23:46 | 38.56615 | -121.63357 | 6253 ft | 273 kts | 323° |
| 2026-05-06 23:46 | 38.58161 | -121.64758 | 5844 ft | 273 kts | 332° |
| 2026-05-06 23:46 | 38.59922 | -121.65627 | 5499 ft | 270 kts | 344° |
| 2026-05-06 23:47 | 38.61728 | -121.66309 | 5107 ft | 270 kts | 343° |
| 2026-05-06 23:47 | 38.63541 | -121.67001 | 4561 ft | 274 kts | 343° |
| 2026-05-06 23:47 | 38.65330 | -121.67687 | 4316 ft | 259 kts | 343° |
| 2026-05-06 23:47 | 38.66982 | -121.68323 | 4247 ft | 238 kts | 342° |
| 2026-05-06 23:48 | 38.68513 | -121.68912 | 4176 ft | 230 kts | 342° |
| 2026-05-06 23:48 | 38.70035 | -121.69501 | 4083 ft | 228 kts | 342° |
| 2026-05-06 23:48 | 38.71573 | -121.69913 | 4039 ft | 222 kts | 356° |
| 2026-05-06 23:48 | 38.73101 | -121.69904 | 3755 ft | 219 kts | 359° |
| 2026-05-06 23:49 | 38.74600 | -121.69870 | 3478 ft | 212 kts | 359° |
| 2026-05-06 23:49 | 38.76006 | -121.69837 | 3265 ft | 192 kts | 359° |
| 2026-05-06 23:49 | 38.77277 | -121.69609 | 3017 ft | 179 kts | 15° |
| 2026-05-06 23:49 | 38.78359 | -121.68915 | 2797 ft | 171 kts | 35° |
| 2026-05-06 23:50 | 38.79203 | -121.67854 | 2605 ft | 170 kts | 54° |
| 2026-05-06 23:50 | 38.79953 | -121.65090 | 2202 ft | 166 kts | 91° |
| 2026-05-06 23:50 | 38.79821 | -121.63634 | 2002 ft | 164 kts | 107° |
| 2026-05-06 23:51 | 38.79362 | -121.62311 | 1803 ft | 162 kts | 124° |
| 2026-05-06 23:51 | 38.78637 | -121.61225 | 1611 ft | 160 kts | 140° |
| 2026-05-06 23:51 | 38.77753 | -121.60480 | 1421 ft | 148 kts | 156° |
| 2026-05-06 23:51 | 38.76782 | -121.60084 | 1242 ft | 145 kts | 171° |
| 2026-05-06 23:52 | 38.75782 | -121.60018 | 1068 ft | 144 kts | 181° |
| 2026-05-06 23:52 | 38.74783 | -121.60032 | 853 ft | 144 kts | 181° |
| 2026-05-06 23:52 | 38.73785 | -121.60044 | 659 ft | 146 kts | 180° |
| 2026-05-06 23:52 | 38.72761 | -121.60065 | 493 ft | 148 kts | 181° |
| 2026-05-06 23:53 | 38.71725 | -121.60097 | 308 ft | 150 kts | 181° |
| 2026-05-06 23:53 | 38.70678 | -121.60113 | 108 ft | 151 kts | 180° |
| 2026-05-06 23:53 | 38.69670 | -121.60122 | 32 ft | 129 kts | 180° |
| 2026-05-06 23:53 | 38.69078 | -121.60135 | 34 ft | 42 kts | 181° |
| 2026-05-06 23:54 | 38.68933 | -121.60140 | 34 ft | 18 kts | 181° |
| 2026-05-06 23:54 | 38.68801 | -121.60141 | 33 ft | 19 kts | 179° |
| 2026-05-06 23:54 | 38.68663 | -121.60144 | 34 ft | 21 kts | 181° |
| 2026-05-06 23:54 | 38.68508 | -121.60147 | 31 ft | 24 kts | 181° |
| 2026-05-06 23:55 | 38.68388 | -121.60111 | 30 ft | 14 kts | 105° |
| 2026-05-06 23:55 | 38.68383 | -121.59984 | 31 ft | 15 kts | 92° |
| 2026-05-06 23:55 | 38.68419 | -121.59886 | 32 ft | 12 kts | 9° |
| 2026-05-06 23:55 | 38.68507 | -121.59884 | 31 ft | 13 kts | 0° |
| 2026-05-06 23:56 | 38.68606 | -121.59883 | 31 ft | 15 kts | 0° |
| 2026-05-06 23:56 | 38.68715 | -121.59881 | 32 ft | 16 kts | 1° |
| 2026-05-06 23:56 | 38.68833 | -121.59877 | 32 ft | 18 kts | 2° |
| 2026-05-06 23:56 | 38.68958 | -121.59871 | 33 ft | 19 kts | 1° |
| 2026-05-06 23:57 | 38.69093 | -121.59873 | 33 ft | 20 kts | 0° |
| 2026-05-06 23:57 | 38.69236 | -121.59871 | 33 ft | 21 kts | 1° |
| 2026-05-06 23:57 | 38.69386 | -121.59867 | 32 ft | 22 kts | 0° |
| 2026-05-06 23:57 | 38.69463 | -121.59786 | 34 ft | 16 kts | 84° |
| 2026-05-06 23:58 | 38.69463 | -121.59634 | 34 ft | 18 kts | 92° |
| 2026-05-06 23:58 | 38.69462 | -121.59507 | 34 ft | 9 kts | 84° |
| 2026-05-06 23:58 | 38.69508 | -121.59459 | 34 ft | 4 kts | 26° |
| 2026-05-06 23:58 | 38.69520 | -121.59451 | 34 ft | 0 kts | 27° |